createdAt,value
2022-10-04T00:00:41.251Z,60.20
2022-10-04T00:03:45.750Z,60.10
2022-10-04T00:06:54.192Z,60.10
2022-10-04T00:09:59.194Z,60.10
2022-10-04T00:13:03.444Z,60.00
2022-10-04T00:16:05.640Z,60.00
2022-10-04T00:19:25.157Z,60.20
2022-10-04T00:22:28.856Z,60.00
2022-10-04T00:25:35.770Z,60.10
2022-10-04T00:28:45.839Z,60.20
2022-10-04T00:32:12.704Z,60.10
2022-10-04T00:35:42.745Z,60.10
2022-10-04T00:39:11.735Z,60.10
2022-10-04T00:42:26.478Z,60.00
2022-10-04T00:45:34.668Z,60.00
2022-10-04T00:48:43.700Z,60.20
2022-10-04T00:51:49.691Z,60.00
2022-10-04T00:54:56.402Z,60.70
2022-10-04T00:58:00.602Z,60.00
2022-10-04T01:01:04.189Z,59.80
2022-10-04T01:04:13.233Z,60.30
2022-10-04T01:07:18.209Z,60.00
2022-10-04T01:10:25.188Z,59.90
2022-10-04T01:13:30.689Z,59.90
2022-10-04T01:16:35.430Z,59.60
2022-10-04T01:19:40.578Z,59.90
2022-10-04T01:22:49.703Z,59.80
2022-10-04T01:25:52.048Z,60.00
2022-10-04T01:28:53.991Z,59.70
2022-10-04T01:31:58.094Z,59.70
2022-10-04T01:34:59.595Z,59.70
2022-10-04T01:38:05.909Z,59.40
2022-10-04T01:41:09.411Z,59.10
2022-10-04T01:44:17.262Z,59.10
2022-10-04T01:47:23.806Z,59.10
2022-10-04T01:50:29.624Z,59.10
2022-10-04T01:53:36.506Z,59.20
2022-10-04T01:56:45.897Z,59.10
2022-10-04T01:59:52.163Z,59.00
2022-10-04T02:02:58.351Z,58.90
2022-10-04T02:06:03.970Z,59.10
2022-10-04T02:09:10.253Z,58.90
2022-10-04T02:12:15.893Z,58.90
2022-10-04T02:15:20.948Z,59.00
2022-10-04T02:18:24.589Z,58.90
2022-10-04T02:21:26.188Z,59.00
2022-10-04T02:24:28.770Z,58.90
2022-10-04T02:27:31.630Z,59.00
2022-10-04T02:30:36.291Z,58.70
2022-10-04T02:33:40.372Z,58.70
2022-10-04T02:36:41.963Z,58.60
2022-10-04T02:39:50.594Z,58.70
2022-10-04T02:42:59.905Z,58.60
2022-10-04T02:46:06.666Z,58.70
2022-10-04T02:49:19.469Z,58.50
2022-10-04T02:52:26.539Z,58.40
2022-10-04T02:55:30.814Z,58.40
2022-10-04T02:58:36.913Z,58.60
2022-10-04T03:01:47.180Z,58.40
2022-10-04T03:04:50.586Z,58.50
2022-10-04T03:07:53.067Z,58.40
2022-10-04T03:10:56.048Z,58.70
2022-10-04T03:13:59.648Z,58.60
2022-10-04T03:17:04.424Z,58.50
2022-10-04T03:20:08.431Z,58.50
2022-10-04T03:23:11.363Z,59.60
2022-10-04T03:26:24.359Z,59.00
2022-10-04T03:29:31.245Z,59.10
2022-10-04T03:32:33.347Z,58.90
2022-10-04T03:35:37.395Z,58.80
2022-10-04T03:38:39.669Z,59.00
2022-10-04T03:41:45.102Z,59.40
2022-10-04T03:44:48.331Z,58.90
2022-10-04T03:47:53.258Z,59.10
2022-10-04T03:50:55.144Z,59.00
2022-10-04T03:53:58.698Z,59.60
2022-10-04T03:57:02.515Z,59.00
2022-10-04T04:00:06.117Z,58.90
2022-10-04T04:03:19.618Z,58.80
2022-10-04T04:06:22.720Z,59.00
2022-10-04T04:09:34.105Z,59.00
2022-10-04T04:12:43.603Z,59.10
2022-10-04T04:15:46.784Z,59.10
2022-10-04T04:18:49.576Z,59.20
2022-10-04T04:21:54.647Z,59.10
2022-10-04T04:24:56.727Z,59.10
2022-10-04T04:28:07.058Z,59.20
2022-10-04T04:31:18.047Z,59.20
2022-10-04T04:34:21.894Z,59.20
2022-10-04T04:37:23.404Z,59.20
2022-10-04T04:40:25.317Z,59.30
2022-10-04T04:43:27.705Z,59.40
2022-10-04T04:46:30.052Z,59.10
2022-10-04T04:49:31.834Z,74.30
2022-10-04T04:52:34.910Z,59.40
2022-10-04T04:56:01.872Z,59.40
2022-10-04T04:59:06.384Z,59.50
2022-10-04T05:02:27.876Z,59.40
2022-10-04T05:05:33.269Z,59.50
2022-10-04T05:08:40.151Z,59.50
2022-10-04T05:11:43.222Z,59.60
2022-10-04T05:14:47.397Z,59.60
2022-10-04T05:17:48.799Z,59.30
2022-10-04T05:20:51.321Z,59.50
2022-10-04T05:23:56.683Z,59.70
2022-10-04T05:27:02.303Z,59.50
2022-10-04T05:30:08.674Z,59.40
2022-10-04T05:33:13.935Z,59.50
2022-10-04T05:36:40.907Z,59.20
2022-10-04T05:39:48.609Z,59.30
2022-10-04T05:42:53.499Z,59.70
2022-10-04T05:46:14.981Z,59.50
2022-10-04T05:49:21.905Z,73.80
2022-10-04T05:52:29.934Z,59.30
2022-10-04T05:55:40.295Z,59.40
2022-10-04T05:58:56.694Z,59.20
2022-10-04T06:02:13.713Z,59.00
2022-10-04T06:05:26.896Z,59.30
2022-10-04T06:08:43.663Z,59.40
2022-10-04T06:12:01.386Z,59.30
2022-10-04T06:15:21.863Z,59.70
2022-10-04T06:18:39.886Z,59.00
2022-10-04T06:21:56.045Z,59.20
2022-10-04T06:25:02.496Z,59.00
2022-10-04T06:28:15.684Z,59.50
2022-10-04T06:31:43.297Z,59.10
2022-10-04T06:35:10.521Z,58.70
2022-10-04T06:38:32.232Z,59.20
2022-10-04T06:41:53.865Z,59.00
2022-10-04T06:45:17.029Z,59.00
2022-10-04T06:48:36.987Z,58.90
2022-10-04T06:51:58.657Z,58.90
2022-10-04T06:55:26.801Z,58.70
2022-10-04T06:58:45.578Z,58.50
2022-10-04T07:01:51.458Z,58.70
2022-10-04T07:05:14.281Z,58.70
2022-10-04T07:08:30.717Z,58.90
2022-10-04T07:11:42.263Z,58.50
2022-10-04T07:14:48.289Z,58.70
2022-10-04T07:17:52.724Z,59.00
2022-10-04T07:21:02.200Z,58.60
2022-10-04T07:24:11.441Z,58.70
2022-10-04T07:27:19.502Z,58.60
2022-10-04T07:30:21.025Z,58.80
2022-10-04T07:33:25.514Z,58.80
2022-10-04T07:36:31.687Z,58.70
2022-10-04T07:39:44.688Z,58.80
2022-10-04T07:42:52.349Z,58.80
2022-10-04T07:46:02.799Z,58.60
2022-10-04T07:49:13.093Z,58.60
2022-10-04T07:52:29.024Z,58.40
2022-10-04T07:55:42.285Z,58.70
2022-10-04T07:58:53.806Z,58.60
2022-10-04T08:02:06.266Z,58.50
2022-10-04T08:05:20.628Z,58.40
2022-10-04T08:08:37.309Z,58.50
2022-10-04T08:11:49.342Z,58.30
2022-10-04T08:15:02.803Z,58.30
2022-10-04T08:18:24.774Z,58.20
2022-10-04T08:21:36.045Z,58.10
2022-10-04T08:24:53.241Z,58.00
2022-10-04T08:28:13.080Z,58.10
2022-10-04T08:31:27.881Z,58.10
2022-10-04T08:34:44.295Z,58.00
2022-10-04T08:37:58.900Z,58.10
2022-10-04T08:41:41.297Z,72.40
2022-10-04T08:45:02.879Z,58.00
2022-10-04T08:48:22.035Z,57.80
2022-10-04T08:51:50.638Z,58.10
2022-10-04T08:55:20.050Z,58.10
2022-10-04T08:58:40.449Z,57.80
2022-10-04T09:02:06.281Z,58.00
2022-10-04T09:05:33.304Z,58.00
2022-10-04T09:09:06.555Z,57.60
2022-10-04T09:12:35.295Z,57.80
2022-10-04T09:15:50.772Z,57.70
2022-10-04T09:19:19.601Z,57.80
2022-10-04T09:22:40.182Z,57.70
2022-10-04T09:26:05.652Z,57.90
2022-10-04T09:29:21.822Z,58.10
2022-10-04T09:32:45.508Z,57.80
2022-10-04T09:36:01.624Z,57.50
2022-10-04T09:39:31.289Z,57.60
2022-10-04T09:42:47.340Z,57.50
2022-10-04T09:46:02.824Z,57.50
2022-10-04T09:49:18.710Z,57.50
2022-10-04T09:52:34.502Z,57.50
2022-10-04T09:55:52.891Z,57.50
2022-10-04T09:59:17.691Z,57.40
2022-10-04T10:02:44.350Z,57.40
2022-10-04T10:06:08.447Z,56.90
2022-10-04T10:09:21.347Z,57.40
2022-10-04T10:12:53.056Z,57.40
2022-10-04T10:16:05.878Z,57.20
2022-10-04T10:19:34.832Z,57.10
2022-10-04T10:23:01.811Z,57.20
2022-10-04T10:26:23.265Z,57.20
2022-10-04T10:29:42.169Z,57.00
2022-10-04T10:33:03.398Z,57.20
2022-10-04T10:36:28.314Z,57.10
2022-10-04T10:39:56.972Z,57.00
2022-10-04T10:43:19.998Z,56.90
2022-10-04T10:46:37.853Z,56.80
2022-10-04T10:49:59.464Z,56.80
2022-10-04T10:53:19.796Z,56.50
2022-10-04T10:56:35.477Z,56.40
2022-10-04T11:00:06.869Z,56.70
2022-10-04T11:03:34.151Z,56.40
2022-10-04T11:07:00.077Z,56.00
2022-10-04T11:10:33.083Z,56.20
2022-10-04T11:13:56.754Z,56.20
2022-10-04T11:17:20.106Z,56.00
2022-10-04T11:20:38.279Z,56.10
2022-10-04T11:24:00.883Z,56.00
2022-10-04T11:27:16.489Z,56.20
2022-10-04T11:30:22.628Z,56.00
2022-10-04T11:33:47.647Z,56.10
2022-10-04T11:37:04.009Z,56.00
2022-10-04T11:40:17.697Z,56.10
2022-10-04T11:43:39.347Z,56.20
2022-10-04T11:46:46.919Z,56.30
2022-10-04T11:50:03.069Z,56.40
2022-10-04T11:53:32.762Z,56.30
2022-10-04T11:56:44.174Z,56.30
2022-10-04T12:00:00.309Z,56.40
2022-10-04T12:03:27.274Z,56.30
2022-10-04T12:06:43.875Z,56.20
2022-10-04T12:09:53.454Z,56.30
2022-10-04T12:13:25.789Z,56.30
2022-10-04T12:16:50.312Z,56.30
2022-10-04T12:20:17.152Z,56.20
2022-10-04T12:23:40.513Z,56.20
2022-10-04T12:26:56.865Z,56.30
2022-10-04T12:30:20.046Z,56.20
2022-10-04T12:33:26.437Z,56.10
2022-10-04T12:36:42.813Z,56.00
2022-10-04T12:40:06.679Z,56.20
2022-10-04T12:43:16.011Z,56.20
2022-10-04T12:46:30.033Z,56.00
2022-10-04T12:49:47.908Z,69.40
2022-10-04T12:52:57.365Z,55.60
2022-10-04T12:56:06.535Z,55.70
2022-10-04T12:59:33.319Z,55.60
2022-10-04T13:02:48.129Z,55.40
2022-10-04T13:06:02.223Z,55.60
2022-10-04T13:09:16.034Z,55.30
2022-10-04T13:12:30.476Z,55.50
2022-10-04T13:19:11.557Z,55.10
2022-10-04T13:22:54.877Z,55.40
2022-10-04T13:26:14.829Z,55.60
2022-10-04T13:29:26.841Z,55.50
2022-10-04T13:32:32.794Z,55.50
2022-10-04T13:35:41.942Z,55.50
2022-10-04T13:39:00.721Z,55.50
2022-10-04T13:42:15.875Z,55.60
2022-10-04T13:45:35.363Z,55.60
2022-10-04T13:48:45.449Z,55.60
2022-10-04T13:52:13.110Z,55.60
2022-10-04T13:55:40.880Z,55.70
2022-10-04T13:58:47.764Z,55.70
2022-10-04T14:02:17.296Z,55.90
2022-10-04T14:05:52.061Z,56.00
2022-10-04T14:09:10.500Z,55.90
2022-10-04T14:12:34.022Z,56.30
2022-10-04T14:15:56.031Z,56.20
2022-10-04T14:19:30.677Z,56.10
2022-10-04T14:22:52.978Z,56.10
2022-10-04T14:26:16.575Z,55.90
2022-10-04T14:29:43.949Z,56.00
2022-10-04T14:33:09.338Z,56.00
2022-10-04T14:36:31.508Z,56.10
2022-10-04T14:39:53.485Z,55.90
2022-10-04T14:43:17.454Z,56.20
2022-10-04T14:46:27.505Z,56.30
2022-10-04T14:49:46.153Z,70.20
2022-10-04T14:52:58.435Z,56.60
2022-10-04T14:56:20.888Z,56.50
2022-10-04T14:59:45.939Z,56.20
2022-10-04T15:03:06.810Z,56.50
2022-10-04T15:06:13.295Z,56.50
2022-10-04T15:09:40.280Z,56.20
2022-10-04T15:16:31.716Z,56.20
2022-10-04T15:19:44.436Z,56.30
2022-10-04T15:22:52.902Z,56.30
2022-10-04T15:26:01.196Z,56.00
2022-10-04T15:29:15.181Z,56.10
2022-10-04T15:32:26.731Z,56.00
2022-10-04T15:35:37.032Z,56.00
2022-10-04T15:38:48.716Z,56.00
2022-10-04T15:41:56.345Z,56.00
2022-10-04T15:45:20.086Z,56.00
2022-10-04T15:48:32.748Z,56.00
2022-10-04T15:51:48.780Z,55.90
2022-10-04T15:55:10.631Z,55.70
2022-10-04T15:58:30.273Z,55.80
2022-10-04T16:01:48.698Z,55.60
2022-10-04T16:05:02.935Z,55.60
2022-10-04T16:08:24.158Z,55.80
2022-10-04T16:11:46.411Z,55.60
2022-10-04T16:14:58.162Z,55.60
2022-10-04T16:18:12.459Z,55.40
2022-10-04T16:21:27.683Z,55.60
2022-10-04T16:24:41.485Z,55.50
2022-10-04T16:27:55.904Z,55.40
2022-10-04T16:31:20.837Z,55.40
2022-10-04T16:34:42.568Z,55.20
2022-10-04T16:37:56.628Z,55.20
2022-10-04T16:41:10.338Z,54.80
2022-10-04T16:44:29.050Z,54.80
2022-10-04T16:47:34.632Z,54.50
2022-10-04T16:50:56.323Z,54.30
2022-10-04T16:54:08.923Z,54.20
2022-10-04T16:57:21.555Z,54.10
2022-10-04T17:00:33.245Z,53.90
2022-10-04T17:03:37.273Z,53.60
2022-10-04T17:06:47.785Z,53.80
2022-10-04T17:09:57.221Z,53.80
2022-10-04T17:13:18.152Z,53.90
2022-10-04T17:16:30.446Z,53.40
2022-10-04T17:19:41.884Z,53.70
2022-10-04T17:22:46.585Z,53.80
2022-10-04T17:25:58.669Z,53.90
2022-10-04T17:29:08.150Z,53.80
2022-10-04T17:32:23.394Z,53.70
2022-10-04T17:35:46.922Z,53.90
2022-10-04T17:38:56.375Z,53.90
2022-10-04T17:42:09.093Z,53.90
2022-10-04T17:45:32.225Z,53.90
2022-10-04T17:48:58.611Z,54.00
2022-10-04T17:52:19.008Z,53.80
2022-10-04T17:55:27.763Z,54.10
2022-10-04T17:58:39.100Z,53.90
2022-10-04T18:01:44.600Z,54.00
2022-10-04T18:04:50.385Z,54.00
2022-10-04T18:07:58.824Z,54.10
2022-10-04T18:11:04.838Z,54.30
2022-10-04T18:14:11.675Z,54.30
2022-10-04T18:17:26.130Z,54.50
2022-10-04T18:20:33.130Z,54.30
2022-10-04T18:23:38.721Z,54.30
2022-10-04T18:26:56.740Z,54.50
2022-10-04T18:30:10.933Z,54.40
2022-10-04T18:33:14.654Z,54.60
2022-10-04T18:36:20.226Z,54.50
2022-10-04T18:39:23.687Z,55.00
2022-10-04T18:42:36.270Z,54.50
2022-10-04T18:45:38.710Z,54.80
2022-10-04T18:48:51.272Z,54.90
2022-10-04T18:52:06.651Z,55.00
2022-10-04T18:55:25.704Z,55.50
2022-10-04T18:58:53.284Z,54.90
2022-10-04T19:02:07.181Z,54.90
2022-10-04T19:05:17.839Z,55.20
2022-10-04T19:08:32.948Z,55.00
2022-10-04T19:11:42.944Z,55.00
2022-10-04T19:14:53.291Z,55.10
2022-10-04T19:18:07.985Z,55.20
2022-10-04T19:21:19.846Z,55.10
2022-10-04T19:24:44.496Z,55.70
2022-10-04T19:27:54.096Z,55.10
2022-10-04T19:31:09.398Z,55.10
2022-10-04T19:34:17.270Z,55.40
2022-10-04T19:37:24.996Z,55.50
2022-10-04T19:40:37.342Z,55.40
2022-10-04T19:43:51.601Z,55.60
2022-10-04T19:46:59.875Z,55.50
2022-10-04T19:50:05.916Z,55.60
2022-10-04T19:53:16.337Z,55.70
2022-10-04T19:56:19.657Z,55.80
2022-10-04T19:59:29.050Z,56.10
2022-10-04T20:02:30.582Z,55.60
2022-10-04T20:05:32.134Z,55.90
2022-10-04T20:08:47.714Z,55.70
2022-10-04T20:11:53.294Z,55.60
2022-10-04T20:15:27.670Z,55.60
2022-10-04T20:18:58.365Z,56.20
2022-10-04T20:22:29.770Z,55.70
2022-10-04T20:25:59.004Z,55.60
2022-10-04T20:29:00.501Z,55.60
2022-10-04T20:32:03.550Z,55.60
2022-10-04T20:35:09.710Z,55.50
2022-10-04T20:38:31.829Z,55.30
2022-10-04T20:41:59.677Z,55.70
2022-10-04T20:45:05.500Z,55.00
2022-10-04T20:48:14.540Z,55.00
2022-10-04T20:51:21.696Z,55.10
2022-10-04T20:54:24.182Z,55.10
2022-10-04T20:57:25.696Z,55.10
2022-10-04T21:00:32.955Z,55.10
2022-10-04T21:03:36.009Z,54.90
2022-10-04T21:06:51.261Z,55.00
2022-10-04T21:10:06.768Z,54.90
2022-10-04T21:13:43.724Z,55.10
2022-10-04T21:16:48.056Z,54.80
2022-10-04T21:19:49.890Z,55.00
2022-10-04T21:23:07.474Z,54.90
2022-10-04T21:26:24.505Z,54.70
2022-10-04T21:29:26.029Z,54.60
2022-10-04T21:32:33.168Z,54.90
2022-10-04T21:35:34.779Z,54.60
2022-10-04T21:38:36.313Z,54.80
2022-10-04T21:41:37.904Z,54.60
2022-10-04T21:44:39.284Z,54.40
2022-10-04T21:47:41.215Z,54.40
2022-10-04T21:50:43.187Z,54.70
2022-10-04T21:53:44.712Z,55.00
2022-10-04T21:56:46.442Z,54.40
2022-10-04T21:59:48.110Z,54.10
2022-10-04T22:02:49.932Z,54.00
2022-10-04T22:05:54.655Z,54.30
2022-10-04T22:08:56.063Z,54.10
2022-10-04T22:11:57.425Z,54.00
2022-10-04T22:14:58.805Z,54.00
2022-10-04T22:18:00.611Z,54.10
2022-10-04T22:21:02.168Z,54.00
2022-10-04T22:24:09.933Z,54.50
2022-10-04T22:27:13.680Z,53.90
2022-10-04T22:30:22.062Z,53.80
2022-10-04T22:33:30.752Z,53.60
2022-10-04T22:36:37.316Z,53.80
2022-10-04T22:39:39.385Z,53.90
2022-10-04T22:42:41.887Z,53.60
2022-10-04T22:45:43.334Z,53.60
2022-10-04T22:48:47.410Z,53.90
2022-10-04T22:51:50.662Z,54.00
2022-10-04T22:54:56.472Z,54.20
2022-10-04T22:57:58.033Z,54.10
2022-10-04T23:01:00.669Z,54.30
2022-10-04T23:04:09.458Z,54.10
2022-10-04T23:07:14.450Z,54.30
2022-10-04T23:10:18.476Z,54.20
2022-10-04T23:13:24.566Z,54.10
2022-10-04T23:16:26.311Z,54.60
2022-10-04T23:19:29.911Z,54.60
2022-10-04T23:22:31.383Z,54.60
2022-10-04T23:25:34.074Z,54.60
2022-10-04T23:28:36.709Z,54.40
2022-10-04T23:31:38.216Z,54.40
2022-10-04T23:34:43.777Z,54.70
2022-10-04T23:37:49.569Z,54.70
2022-10-04T23:40:51.090Z,54.40
2022-10-04T23:43:52.907Z,54.50
2022-10-04T23:46:54.353Z,54.70
2022-10-04T23:49:56.345Z,54.70
2022-10-04T23:53:03.535Z,54.50
2022-10-04T23:56:11.246Z,54.30
2022-10-04T23:59:16.207Z,54.50
